sensor_id;sensor_type;location;lat;lon;timestamp;P1;durP1;ratioP1;P2;durP2;ratioP2
33421;SDS011;19763;55.798;37.782;2023-02-24T00:00:04;12.07;;;7.95;;
33421;SDS011;19763;55.798;37.782;2023-02-24T00:02:50;13.23;;;7.97;;
33421;SDS011;19763;55.798;37.782;2023-02-24T00:05:16;14.68;;;7.95;;
33421;SDS011;19763;55.798;37.782;2023-02-24T00:07:42;17.75;;;8.25;;
33421;SDS011;19763;55.798;37.782;2023-02-24T00:10:08;16.02;;;8.40;;
33421;SDS011;19763;55.798;37.782;2023-02-24T00:12:35;15.07;;;9.10;;
33421;SDS011;19763;55.798;37.782;2023-02-24T00:15:01;18.05;;;9.10;;
33421;SDS011;19763;55.798;37.782;2023-02-24T00:17:26;15.25;;;8.80;;
33421;SDS011;19763;55.798;37.782;2023-02-24T00:19:54;14.55;;;8.65;;
33421;SDS011;19763;55.798;37.782;2023-02-24T00:22:20;15.60;;;9.68;;
33421;SDS011;19763;55.798;37.782;2023-02-24T00:24:46;13.52;;;7.97;;
33421;SDS011;19763;55.798;37.782;2023-02-24T00:27:11;14.43;;;8.85;;
33421;SDS011;19763;55.798;37.782;2023-02-24T00:29:37;15.40;;;9.13;;
33421;SDS011;19763;55.798;37.782;2023-02-24T00:32:04;13.18;;;8.55;;
33421;SDS011;19763;55.798;37.782;2023-02-24T00:34:31;13.13;;;8.63;;
33421;SDS011;19763;55.798;37.782;2023-02-24T00:36:59;14.23;;;7.65;;
33421;SDS011;19763;55.798;37.782;2023-02-24T00:39:26;11.27;;;6.75;;
33421;SDS011;19763;55.798;37.782;2023-02-24T00:41:57;13.18;;;8.20;;
33421;SDS011;19763;55.798;37.782;2023-02-24T00:44:31;14.73;;;8.10;;
33421;SDS011;19763;55.798;37.782;2023-02-24T00:47:01;12.55;;;7.25;;
33421;SDS011;19763;55.798;37.782;2023-02-24T00:49:29;10.95;;;6.32;;
33421;SDS011;19763;55.798;37.782;2023-02-24T00:51:56;10.15;;;6.75;;
33421;SDS011;19763;55.798;37.782;2023-02-24T00:54:22;12.32;;;7.38;;
33421;SDS011;19763;55.798;37.782;2023-02-24T00:56:52;11.07;;;7.07;;
33421;SDS011;19763;55.798;37.782;2023-02-24T00:59:18;10.73;;;7.57;;
33421;SDS011;19763;55.798;37.782;2023-02-24T01:01:44;11.88;;;7.22;;
33421;SDS011;19763;55.798;37.782;2023-02-24T01:04:11;11.70;;;7.68;;
33421;SDS011;19763;55.798;37.782;2023-02-24T01:06:47;11.50;;;8.00;;
33421;SDS011;19763;55.798;37.782;2023-02-24T01:09:18;11.95;;;7.47;;
33421;SDS011;19763;55.798;37.782;2023-02-24T01:11:45;13.25;;;7.82;;
33421;SDS011;19763;55.798;37.782;2023-02-24T01:14:31;11.38;;;7.70;;
33421;SDS011;19763;55.798;37.782;2023-02-24T01:16:59;11.70;;;7.75;;
33421;SDS011;19763;55.798;37.782;2023-02-24T01:19:26;12.63;;;7.80;;
33421;SDS011;19763;55.798;37.782;2023-02-24T01:21:54;13.93;;;8.50;;
33421;SDS011;19763;55.798;37.782;2023-02-24T01:24:22;12.10;;;7.05;;
33421;SDS011;19763;55.798;37.782;2023-02-24T01:26:49;12.82;;;7.85;;
33421;SDS011;19763;55.798;37.782;2023-02-24T01:29:14;12.07;;;7.43;;
33421;SDS011;19763;55.798;37.782;2023-02-24T01:31:40;10.65;;;7.72;;
33421;SDS011;19763;55.798;37.782;2023-02-24T01:34:08;12.68;;;8.00;;
33421;SDS011;19763;55.798;37.782;2023-02-24T01:36:35;13.98;;;8.02;;
33421;SDS011;19763;55.798;37.782;2023-02-24T01:39:02;12.65;;;7.63;;
33421;SDS011;19763;55.798;37.782;2023-02-24T01:41:30;11.90;;;8.13;;
33421;SDS011;19763;55.798;37.782;2023-02-24T01:44:03;12.68;;;7.80;;
33421;SDS011;19763;55.798;37.782;2023-02-24T01:46:53;14.88;;;7.95;;
33421;SDS011;19763;55.798;37.782;2023-02-24T01:49:21;12.50;;;7.63;;
33421;SDS011;19763;55.798;37.782;2023-02-24T01:54:51;14.75;;;8.10;;
33421;SDS011;19763;55.798;37.782;2023-02-24T01:57:22;10.20;;;6.85;;
33421;SDS011;19763;55.798;37.782;2023-02-24T01:59:50;12.20;;;7.55;;
33421;SDS011;19763;55.798;37.782;2023-02-24T02:02:18;13.75;;;7.55;;
33421;SDS011;19763;55.798;37.782;2023-02-24T02:07:33;12.73;;;7.88;;
33421;SDS011;19763;55.798;37.782;2023-02-24T02:10:03;11.65;;;6.90;;
33421;SDS011;19763;55.798;37.782;2023-02-24T02:12:31;12.02;;;7.70;;
33421;SDS011;19763;55.798;37.782;2023-02-24T02:15:02;13.77;;;7.72;;
33421;SDS011;19763;55.798;37.782;2023-02-24T02:23:35;15.85;;;7.93;;
33421;SDS011;19763;55.798;37.782;2023-02-24T02:29:10;11.82;;;8.15;;
33421;SDS011;19763;55.798;37.782;2023-02-24T02:34:41;12.73;;;7.47;;
33421;SDS011;19763;55.798;37.782;2023-02-24T02:37:54;10.30;;;7.07;;
33421;SDS011;19763;55.798;37.782;2023-02-24T02:46:22;13.20;;;7.97;;
33421;SDS011;19763;55.798;37.782;2023-02-24T02:49:12;12.47;;;7.60;;
33421;SDS011;19763;55.798;37.782;2023-02-24T02:51:57;12.20;;;7.50;;
33421;SDS011;19763;55.798;37.782;2023-02-24T02:57:30;11.57;;;7.20;;
33421;SDS011;19763;55.798;37.782;2023-02-24T02:59:59;11.00;;;7.47;;
33421;SDS011;19763;55.798;37.782;2023-02-24T03:02:39;12.48;;;7.35;;
33421;SDS011;19763;55.798;37.782;2023-02-24T03:05:09;10.57;;;6.97;;
33421;SDS011;19763;55.798;37.782;2023-02-24T03:07:42;11.65;;;8.10;;
33421;SDS011;19763;55.798;37.782;2023-02-24T03:10:14;14.85;;;7.63;;
33421;SDS011;19763;55.798;37.782;2023-02-24T03:12:51;15.15;;;7.85;;
33421;SDS011;19763;55.798;37.782;2023-02-24T03:15:22;11.80;;;7.80;;
33421;SDS011;19763;55.798;37.782;2023-02-24T03:17:53;12.43;;;7.47;;
33421;SDS011;19763;55.798;37.782;2023-02-24T03:20:30;11.82;;;7.75;;
33421;SDS011;19763;55.798;37.782;2023-02-24T03:23:08;11.32;;;7.80;;
33421;SDS011;19763;55.798;37.782;2023-02-24T03:25:47;10.05;;;7.07;;
33421;SDS011;19763;55.798;37.782;2023-02-24T03:28:21;12.32;;;7.90;;
33421;SDS011;19763;55.798;37.782;2023-02-24T03:30:59;15.77;;;7.88;;
33421;SDS011;19763;55.798;37.782;2023-02-24T03:33:35;15.98;;;8.60;;
33421;SDS011;19763;55.798;37.782;2023-02-24T03:36:09;13.52;;;8.15;;
33421;SDS011;19763;55.798;37.782;2023-02-24T03:38:39;14.38;;;8.80;;
33421;SDS011;19763;55.798;37.782;2023-02-24T03:41:07;15.13;;;8.70;;
33421;SDS011;19763;55.798;37.782;2023-02-24T03:43:40;14.35;;;8.32;;
33421;SDS011;19763;55.798;37.782;2023-02-24T03:46:12;14.13;;;8.52;;
33421;SDS011;19763;55.798;37.782;2023-02-24T03:48:41;14.25;;;9.52;;
33421;SDS011;19763;55.798;37.782;2023-02-24T03:56:45;15.50;;;9.40;;
33421;SDS011;19763;55.798;37.782;2023-02-24T04:05:02;14.18;;;8.90;;
33421;SDS011;19763;55.798;37.782;2023-02-24T04:10:44;14.52;;;8.55;;
33421;SDS011;19763;55.798;37.782;2023-02-24T04:13:28;12.32;;;7.85;;
33421;SDS011;19763;55.798;37.782;2023-02-24T04:18:29;12.68;;;7.88;;
33421;SDS011;19763;55.798;37.782;2023-02-24T04:20:57;11.90;;;7.70;;
33421;SDS011;19763;55.798;37.782;2023-02-24T04:23:29;11.80;;;8.00;;
33421;SDS011;19763;55.798;37.782;2023-02-24T04:25:58;14.43;;;8.18;;
33421;SDS011;19763;55.798;37.782;2023-02-24T04:28:25;13.35;;;7.90;;
33421;SDS011;19763;55.798;37.782;2023-02-24T04:30:56;13.23;;;8.52;;
33421;SDS011;19763;55.798;37.782;2023-02-24T04:33:25;14.07;;;8.35;;
33421;SDS011;19763;55.798;37.782;2023-02-24T04:35:51;14.80;;;8.02;;
33421;SDS011;19763;55.798;37.782;2023-02-24T04:38:17;12.63;;;8.00;;
33421;SDS011;19763;55.798;37.782;2023-02-24T04:40:43;14.73;;;8.00;;
33421;SDS011;19763;55.798;37.782;2023-02-24T04:43:09;15.77;;;8.45;;
33421;SDS011;19763;55.798;37.782;2023-02-24T04:45:35;12.77;;;8.27;;
33421;SDS011;19763;55.798;37.782;2023-02-24T04:48:04;16.23;;;9.02;;
33421;SDS011;19763;55.798;37.782;2023-02-24T04:50:35;14.82;;;9.05;;
33421;SDS011;19763;55.798;37.782;2023-02-24T04:53:02;13.60;;;8.15;;
33421;SDS011;19763;55.798;37.782;2023-02-24T04:55:40;13.60;;;8.57;;
33421;SDS011;19763;55.798;37.782;2023-02-24T04:58:13;13.38;;;8.77;;
33421;SDS011;19763;55.798;37.782;2023-02-24T05:00:44;16.02;;;8.30;;
33421;SDS011;19763;55.798;37.782;2023-02-24T05:03:17;13.10;;;8.00;;
33421;SDS011;19763;55.798;37.782;2023-02-24T05:05:49;12.63;;;9.02;;
33421;SDS011;19763;55.798;37.782;2023-02-24T05:08:17;12.45;;;8.18;;
33421;SDS011;19763;55.798;37.782;2023-02-24T05:10:44;14.10;;;8.02;;
33421;SDS011;19763;55.798;37.782;2023-02-24T05:13:18;13.60;;;8.50;;
33421;SDS011;19763;55.798;37.782;2023-02-24T05:15:55;14.13;;;8.45;;
33421;SDS011;19763;55.798;37.782;2023-02-24T05:18:29;11.13;;;7.75;;
33421;SDS011;19763;55.798;37.782;2023-02-24T05:21:03;13.27;;;8.43;;
33421;SDS011;19763;55.798;37.782;2023-02-24T05:23:52;14.30;;;9.02;;
33421;SDS011;19763;55.798;37.782;2023-02-24T05:26:19;13.70;;;8.15;;
33421;SDS011;19763;55.798;37.782;2023-02-24T05:28:48;13.05;;;8.30;;
33421;SDS011;19763;55.798;37.782;2023-02-24T05:31:25;14.38;;;8.30;;
33421;SDS011;19763;55.798;37.782;2023-02-24T05:33:56;14.27;;;8.43;;
33421;SDS011;19763;55.798;37.782;2023-02-24T05:36:28;13.07;;;8.32;;
33421;SDS011;19763;55.798;37.782;2023-02-24T05:38:56;14.63;;;7.93;;
33421;SDS011;19763;55.798;37.782;2023-02-24T05:41:23;14.02;;;8.23;;
33421;SDS011;19763;55.798;37.782;2023-02-24T05:43:56;14.35;;;8.77;;
33421;SDS011;19763;55.798;37.782;2023-02-24T05:46:27;12.95;;;8.35;;
33421;SDS011;19763;55.798;37.782;2023-02-24T05:48:58;15.63;;;9.00;;
33421;SDS011;19763;55.798;37.782;2023-02-24T05:51:26;13.82;;;8.98;;
33421;SDS011;19763;55.798;37.782;2023-02-24T05:54:03;12.90;;;8.00;;
33421;SDS011;19763;55.798;37.782;2023-02-24T05:56:31;12.40;;;8.02;;
33421;SDS011;19763;55.798;37.782;2023-02-24T05:59:02;14.57;;;8.13;;
33421;SDS011;19763;55.798;37.782;2023-02-24T06:01:31;14.25;;;8.60;;
33421;SDS011;19763;55.798;37.782;2023-02-24T06:04:00;14.80;;;8.70;;
33421;SDS011;19763;55.798;37.782;2023-02-24T06:06:34;14.02;;;9.15;;
33421;SDS011;19763;55.798;37.782;2023-02-24T06:09:04;18.30;;;8.90;;
33421;SDS011;19763;55.798;37.782;2023-02-24T06:11:35;14.38;;;8.38;;
33421;SDS011;19763;55.798;37.782;2023-02-24T06:14:02;18.23;;;9.40;;
33421;SDS011;19763;55.798;37.782;2023-02-24T06:16:31;14.88;;;9.13;;
33421;SDS011;19763;55.798;37.782;2023-02-24T06:18:58;14.13;;;8.82;;
33421;SDS011;19763;55.798;37.782;2023-02-24T06:21:24;18.48;;;9.43;;
33421;SDS011;19763;55.798;37.782;2023-02-24T06:23:59;14.25;;;8.43;;
33421;SDS011;19763;55.798;37.782;2023-02-24T06:26:26;15.32;;;8.77;;
33421;SDS011;19763;55.798;37.782;2023-02-24T06:28:58;15.20;;;8.90;;
33421;SDS011;19763;55.798;37.782;2023-02-24T06:31:24;15.77;;;9.35;;
33421;SDS011;19763;55.798;37.782;2023-02-24T06:33:51;16.00;;;9.15;;
33421;SDS011;19763;55.798;37.782;2023-02-24T06:36:18;18.02;;;9.55;;
33421;SDS011;19763;55.798;37.782;2023-02-24T06:38:45;14.43;;;8.90;;
33421;SDS011;19763;55.798;37.782;2023-02-24T06:41:11;18.35;;;10.07;;
33421;SDS011;19763;55.798;37.782;2023-02-24T06:43:37;15.27;;;9.52;;
33421;SDS011;19763;55.798;37.782;2023-02-24T06:46:07;15.40;;;9.98;;
33421;SDS011;19763;55.798;37.782;2023-02-24T06:48:35;14.23;;;9.75;;
33421;SDS011;19763;55.798;37.782;2023-02-24T06:51:12;17.08;;;10.30;;
33421;SDS011;19763;55.798;37.782;2023-02-24T06:53:42;18.10;;;10.60;;
33421;SDS011;19763;55.798;37.782;2023-02-24T06:56:12;18.80;;;11.02;;
33421;SDS011;19763;55.798;37.782;2023-02-24T06:58:49;16.20;;;10.15;;
33421;SDS011;19763;55.798;37.782;2023-02-24T07:01:23;16.00;;;9.38;;
33421;SDS011;19763;55.798;37.782;2023-02-24T07:03:53;15.30;;;10.83;;
33421;SDS011;19763;55.798;37.782;2023-02-24T07:06:30;17.00;;;11.07;;
33421;SDS011;19763;55.798;37.782;2023-02-24T07:08:58;17.73;;;10.48;;
33421;SDS011;19763;55.798;37.782;2023-02-24T07:11:29;18.15;;;11.13;;
33421;SDS011;19763;55.798;37.782;2023-02-24T07:13:55;18.45;;;11.05;;
33421;SDS011;19763;55.798;37.782;2023-02-24T07:16:21;19.77;;;11.15;;
33421;SDS011;19763;55.798;37.782;2023-02-24T07:18:55;22.50;;;12.30;;
33421;SDS011;19763;55.798;37.782;2023-02-24T07:21:23;20.42;;;11.43;;
33421;SDS011;19763;55.798;37.782;2023-02-24T07:23:50;17.42;;;11.10;;
33421;SDS011;19763;55.798;37.782;2023-02-24T07:26:21;21.55;;;11.82;;
33421;SDS011;19763;55.798;37.782;2023-02-24T07:28:48;20.90;;;12.32;;
33421;SDS011;19763;55.798;37.782;2023-02-24T07:31:16;19.55;;;12.02;;
33421;SDS011;19763;55.798;37.782;2023-02-24T07:33:43;22.65;;;12.98;;
33421;SDS011;19763;55.798;37.782;2023-02-24T07:36:14;20.23;;;11.07;;
33421;SDS011;19763;55.798;37.782;2023-02-24T07:38:47;18.42;;;11.82;;
33421;SDS011;19763;55.798;37.782;2023-02-24T07:41:13;19.05;;;11.40;;
33421;SDS011;19763;55.798;37.782;2023-02-24T07:43:40;19.63;;;12.68;;
33421;SDS011;19763;55.798;37.782;2023-02-24T07:46:10;20.83;;;11.75;;
33421;SDS011;19763;55.798;37.782;2023-02-24T07:48:40;22.70;;;12.35;;
33421;SDS011;19763;55.798;37.782;2023-02-24T07:51:07;19.52;;;10.98;;
33421;SDS011;19763;55.798;37.782;2023-02-24T07:53:34;20.20;;;12.60;;
33421;SDS011;19763;55.798;37.782;2023-02-24T07:56:04;16.67;;;11.02;;
33421;SDS011;19763;55.798;37.782;2023-02-24T07:58:34;20.67;;;11.90;;
33421;SDS011;19763;55.798;37.782;2023-02-24T08:01:00;19.58;;;12.52;;
33421;SDS011;19763;55.798;37.782;2023-02-24T08:03:33;20.90;;;12.43;;
33421;SDS011;19763;55.798;37.782;2023-02-24T08:06:02;19.80;;;11.43;;
33421;SDS011;19763;55.798;37.782;2023-02-24T08:08:39;20.80;;;12.18;;
33421;SDS011;19763;55.798;37.782;2023-02-24T08:11:35;21.33;;;12.27;;
33421;SDS011;19763;55.798;37.782;2023-02-24T08:14:04;20.00;;;11.75;;
33421;SDS011;19763;55.798;37.782;2023-02-24T08:16:35;19.70;;;12.60;;
33421;SDS011;19763;55.798;37.782;2023-02-24T08:19:11;22.45;;;12.68;;
33421;SDS011;19763;55.798;37.782;2023-02-24T08:21:41;19.80;;;11.60;;
33421;SDS011;19763;55.798;37.782;2023-02-24T08:24:21;20.38;;;12.27;;
33421;SDS011;19763;55.798;37.782;2023-02-24T08:26:51;19.17;;;11.98;;
33421;SDS011;19763;55.798;37.782;2023-02-24T08:29:34;20.65;;;12.32;;
33421;SDS011;19763;55.798;37.782;2023-02-24T08:32:43;17.88;;;11.52;;
33421;SDS011;19763;55.798;37.782;2023-02-24T08:37:50;19.15;;;12.27;;
33421;SDS011;19763;55.798;37.782;2023-02-24T08:40:26;21.60;;;12.95;;
33421;SDS011;19763;55.798;37.782;2023-02-24T08:46:18;21.17;;;12.50;;
33421;SDS011;19763;55.798;37.782;2023-02-24T08:48:52;21.60;;;12.23;;
33421;SDS011;19763;55.798;37.782;2023-02-24T08:51:21;19.05;;;12.35;;
33421;SDS011;19763;55.798;37.782;2023-02-24T08:53:56;21.73;;;13.15;;
33421;SDS011;19763;55.798;37.782;2023-02-24T08:56:27;22.05;;;12.57;;
33421;SDS011;19763;55.798;37.782;2023-02-24T08:58:55;22.83;;;13.32;;
33421;SDS011;19763;55.798;37.782;2023-02-24T09:01:24;21.15;;;12.55;;
33421;SDS011;19763;55.798;37.782;2023-02-24T09:03:55;21.48;;;12.35;;
33421;SDS011;19763;55.798;37.782;2023-02-24T09:06:23;22.42;;;13.00;;
33421;SDS011;19763;55.798;37.782;2023-02-24T09:09:11;20.98;;;13.05;;
33421;SDS011;19763;55.798;37.782;2023-02-24T09:11:49;17.63;;;12.77;;
33421;SDS011;19763;55.798;37.782;2023-02-24T09:14:21;20.17;;;13.10;;
33421;SDS011;19763;55.798;37.782;2023-02-24T09:16:49;24.38;;;13.32;;
33421;SDS011;19763;55.798;37.782;2023-02-24T09:19:38;19.10;;;12.90;;
33421;SDS011;19763;55.798;37.782;2023-02-24T09:22:17;23.35;;;12.98;;
33421;SDS011;19763;55.798;37.782;2023-02-24T09:30:17;22.48;;;13.40;;
33421;SDS011;19763;55.798;37.782;2023-02-24T09:33:00;24.33;;;14.00;;
33421;SDS011;19763;55.798;37.782;2023-02-24T09:35:35;22.02;;;13.70;;
33421;SDS011;19763;55.798;37.782;2023-02-24T09:38:04;21.80;;;13.63;;
33421;SDS011;19763;55.798;37.782;2023-02-24T09:40:32;20.33;;;13.13;;
33421;SDS011;19763;55.798;37.782;2023-02-24T09:43:15;24.95;;;13.27;;
33421;SDS011;19763;55.798;37.782;2023-02-24T09:46:02;19.58;;;12.88;;
33421;SDS011;19763;55.798;37.782;2023-02-24T09:48:44;19.50;;;13.30;;
33421;SDS011;19763;55.798;37.782;2023-02-24T09:51:19;21.60;;;13.57;;
33421;SDS011;19763;55.798;37.782;2023-02-24T09:53:47;22.35;;;13.07;;
33421;SDS011;19763;55.798;37.782;2023-02-24T09:56:37;26.48;;;14.05;;
33421;SDS011;19763;55.798;37.782;2023-02-24T10:07:32;22.60;;;14.05;;
33421;SDS011;19763;55.798;37.782;2023-02-24T10:10:10;23.63;;;14.75;;
33421;SDS011;19763;55.798;37.782;2023-02-24T10:13:13;23.02;;;14.07;;
33421;SDS011;19763;55.798;37.782;2023-02-24T10:15:54;22.25;;;14.52;;
33421;SDS011;19763;55.798;37.782;2023-02-24T10:18:35;24.88;;;14.93;;
33421;SDS011;19763;55.798;37.782;2023-02-24T10:35:23;26.02;;;14.75;;
33421;SDS011;19763;55.798;37.782;2023-02-24T10:37:51;24.33;;;14.90;;
33421;SDS011;19763;55.798;37.782;2023-02-24T10:40:18;23.38;;;13.48;;
33421;SDS011;19763;55.798;37.782;2023-02-24T10:43:09;21.50;;;13.23;;
33421;SDS011;19763;55.798;37.782;2023-02-24T10:45:42;22.80;;;14.25;;
33421;SDS011;19763;55.798;37.782;2023-02-24T10:48:24;24.08;;;14.13;;
33421;SDS011;19763;55.798;37.782;2023-02-24T10:50:51;27.52;;;14.38;;
33421;SDS011;19763;55.798;37.782;2023-02-24T10:53:19;23.67;;;13.65;;
33421;SDS011;19763;55.798;37.782;2023-02-24T10:56:08;22.23;;;14.00;;
33421;SDS011;19763;55.798;37.782;2023-02-24T11:01:55;25.02;;;14.98;;
33421;SDS011;19763;55.798;37.782;2023-02-24T11:04:32;26.83;;;15.80;;
33421;SDS011;19763;55.798;37.782;2023-02-24T11:07:29;24.05;;;13.82;;
33421;SDS011;19763;55.798;37.782;2023-02-24T11:12:50;23.40;;;14.70;;
33421;SDS011;19763;55.798;37.782;2023-02-24T11:15:37;27.20;;;15.00;;
33421;SDS011;19763;55.798;37.782;2023-02-24T11:18:27;27.05;;;15.35;;
33421;SDS011;19763;55.798;37.782;2023-02-24T11:21:04;26.45;;;14.45;;
33421;SDS011;19763;55.798;37.782;2023-02-24T11:37:45;26.50;;;15.73;;
33421;SDS011;19763;55.798;37.782;2023-02-24T11:40:29;24.65;;;15.10;;
33421;SDS011;19763;55.798;37.782;2023-02-24T11:43:05;28.02;;;15.45;;
33421;SDS011;19763;55.798;37.782;2023-02-24T11:45:51;21.50;;;14.27;;
33421;SDS011;19763;55.798;37.782;2023-02-24T11:48:29;24.25;;;14.77;;
33421;SDS011;19763;55.798;37.782;2023-02-24T11:56:38;23.08;;;14.57;;
33421;SDS011;19763;55.798;37.782;2023-02-24T11:59:15;26.38;;;15.30;;
33421;SDS011;19763;55.798;37.782;2023-02-24T12:07:39;24.70;;;15.40;;
33421;SDS011;19763;55.798;37.782;2023-02-24T12:21:05;24.35;;;15.05;;
33421;SDS011;19763;55.798;37.782;2023-02-24T12:23:41;23.05;;;15.73;;
33421;SDS011;19763;55.798;37.782;2023-02-24T12:29:31;25.73;;;16.10;;
33421;SDS011;19763;55.798;37.782;2023-02-24T12:32:00;23.48;;;15.27;;
33421;SDS011;19763;55.798;37.782;2023-02-24T12:37:27;25.17;;;15.75;;
33421;SDS011;19763;55.798;37.782;2023-02-24T12:40:08;22.83;;;15.18;;
33421;SDS011;19763;55.798;37.782;2023-02-24T12:45:24;23.52;;;15.10;;
33421;SDS011;19763;55.798;37.782;2023-02-24T12:50:54;23.27;;;15.57;;
33421;SDS011;19763;55.798;37.782;2023-02-24T12:53:42;26.40;;;15.73;;
33421;SDS011;19763;55.798;37.782;2023-02-24T12:56:17;28.10;;;15.77;;
33421;SDS011;19763;55.798;37.782;2023-02-24T12:58:44;25.55;;;16.23;;
33421;SDS011;19763;55.798;37.782;2023-02-24T13:01:23;25.60;;;16.27;;
33421;SDS011;19763;55.798;37.782;2023-02-24T13:12:20;29.42;;;17.08;;
33421;SDS011;19763;55.798;37.782;2023-02-24T13:14:53;21.60;;;14.57;;
33421;SDS011;19763;55.798;37.782;2023-02-24T13:17:20;26.05;;;15.75;;
33421;SDS011;19763;55.798;37.782;2023-02-24T13:19:50;26.38;;;16.27;;
33421;SDS011;19763;55.798;37.782;2023-02-24T13:22:29;22.38;;;14.82;;
33421;SDS011;19763;55.798;37.782;2023-02-24T13:24:57;23.33;;;15.82;;
33421;SDS011;19763;55.798;37.782;2023-02-24T13:27:53;25.60;;;16.77;;
33421;SDS011;19763;55.798;37.782;2023-02-24T13:33:00;27.80;;;16.75;;
33421;SDS011;19763;55.798;37.782;2023-02-24T13:35:31;27.58;;;16.27;;
33421;SDS011;19763;55.798;37.782;2023-02-24T13:38:09;31.13;;;16.42;;
33421;SDS011;19763;55.798;37.782;2023-02-24T13:44:01;27.60;;;16.08;;
33421;SDS011;19763;55.798;37.782;2023-02-24T13:46:53;26.00;;;16.85;;
33421;SDS011;19763;55.798;37.782;2023-02-24T13:52:41;25.60;;;16.45;;
33421;SDS011;19763;55.798;37.782;2023-02-24T13:58:18;24.77;;;16.88;;
33421;SDS011;19763;55.798;37.782;2023-02-24T14:03:33;26.60;;;15.65;;
33421;SDS011;19763;55.798;37.782;2023-02-24T14:06:23;32.08;;;16.48;;
33421;SDS011;19763;55.798;37.782;2023-02-24T14:08:58;29.98;;;17.02;;
33421;SDS011;19763;55.798;37.782;2023-02-24T14:11:27;29.38;;;17.45;;
33421;SDS011;19763;55.798;37.782;2023-02-24T14:13:55;25.13;;;16.58;;
33421;SDS011;19763;55.798;37.782;2023-02-24T14:16:28;27.20;;;16.80;;
33421;SDS011;19763;55.798;37.782;2023-02-24T14:19:00;28.77;;;17.00;;
33421;SDS011;19763;55.798;37.782;2023-02-24T14:21:27;29.38;;;17.33;;
33421;SDS011;19763;55.798;37.782;2023-02-24T14:23:56;26.00;;;17.33;;
33421;SDS011;19763;55.798;37.782;2023-02-24T14:26:26;27.70;;;16.45;;
33421;SDS011;19763;55.798;37.782;2023-02-24T14:28:58;29.52;;;17.15;;
33421;SDS011;19763;55.798;37.782;2023-02-24T14:31:25;26.80;;;16.70;;
33421;SDS011;19763;55.798;37.782;2023-02-24T14:33:53;30.08;;;16.67;;
33421;SDS011;19763;55.798;37.782;2023-02-24T14:41:50;24.10;;;16.08;;
33421;SDS011;19763;55.798;37.782;2023-02-24T14:44:29;26.38;;;15.68;;
33421;SDS011;19763;55.798;37.782;2023-02-24T14:46:58;27.38;;;16.20;;
33421;SDS011;19763;55.798;37.782;2023-02-24T14:49:28;29.10;;;17.13;;
33421;SDS011;19763;55.798;37.782;2023-02-24T14:57:11;23.77;;;15.48;;
33421;SDS011;19763;55.798;37.782;2023-02-24T14:59:41;30.83;;;16.27;;
33421;SDS011;19763;55.798;37.782;2023-02-24T15:02:16;24.02;;;15.48;;
33421;SDS011;19763;55.798;37.782;2023-02-24T15:04:46;23.85;;;16.08;;
33421;SDS011;19763;55.798;37.782;2023-02-24T15:07:16;26.83;;;16.48;;
33421;SDS011;19763;55.798;37.782;2023-02-24T15:09:50;26.45;;;16.48;;
33421;SDS011;19763;55.798;37.782;2023-02-24T15:12:42;26.73;;;15.77;;
33421;SDS011;19763;55.798;37.782;2023-02-24T15:17:52;27.95;;;16.88;;
33421;SDS011;19763;55.798;37.782;2023-02-24T15:23:00;29.55;;;17.67;;
33421;SDS011;19763;55.798;37.782;2023-02-24T15:25:30;24.88;;;16.65;;
33421;SDS011;19763;55.798;37.782;2023-02-24T15:33:28;30.45;;;17.92;;
33421;SDS011;19763;55.798;37.782;2023-02-24T15:35:58;27.30;;;17.70;;
33421;SDS011;19763;55.798;37.782;2023-02-24T15:38:37;26.25;;;16.02;;
33421;SDS011;19763;55.798;37.782;2023-02-24T15:41:05;28.52;;;17.77;;
33421;SDS011;19763;55.798;37.782;2023-02-24T15:43:36;29.92;;;17.02;;
33421;SDS011;19763;55.798;37.782;2023-02-24T15:46:22;28.80;;;17.92;;
33421;SDS011;19763;55.798;37.782;2023-02-24T15:48:49;26.30;;;17.55;;
33421;SDS011;19763;55.798;37.782;2023-02-24T15:51:26;28.98;;;18.58;;
33421;SDS011;19763;55.798;37.782;2023-02-24T15:54:07;28.48;;;17.52;;
33421;SDS011;19763;55.798;37.782;2023-02-24T15:56:37;28.73;;;17.55;;
33421;SDS011;19763;55.798;37.782;2023-02-24T15:59:04;26.45;;;17.60;;
33421;SDS011;19763;55.798;37.782;2023-02-24T16:01:30;26.73;;;17.75;;
33421;SDS011;19763;55.798;37.782;2023-02-24T16:03:57;28.90;;;18.63;;
33421;SDS011;19763;55.798;37.782;2023-02-24T16:06:24;31.38;;;18.50;;
33421;SDS011;19763;55.798;37.782;2023-02-24T16:08:51;30.23;;;18.08;;
33421;SDS011;19763;55.798;37.782;2023-02-24T16:11:20;32.35;;;18.50;;
33421;SDS011;19763;55.798;37.782;2023-02-24T16:13:53;27.48;;;18.25;;
33421;SDS011;19763;55.798;37.782;2023-02-24T16:16:21;31.17;;;19.25;;
33421;SDS011;19763;55.798;37.782;2023-02-24T16:18:48;28.23;;;18.27;;
33421;SDS011;19763;55.798;37.782;2023-02-24T16:21:14;31.63;;;18.95;;
33421;SDS011;19763;55.798;37.782;2023-02-24T16:23:40;27.75;;;18.15;;
33421;SDS011;19763;55.798;37.782;2023-02-24T16:26:23;28.15;;;18.33;;
33421;SDS011;19763;55.798;37.782;2023-02-24T16:28:51;26.92;;;17.77;;
33421;SDS011;19763;55.798;37.782;2023-02-24T16:31:19;30.45;;;17.73;;
33421;SDS011;19763;55.798;37.782;2023-02-24T16:33:45;32.67;;;18.08;;
33421;SDS011;19763;55.798;37.782;2023-02-24T16:36:10;30.95;;;19.15;;
33421;SDS011;19763;55.798;37.782;2023-02-24T16:38:37;28.83;;;18.20;;
33421;SDS011;19763;55.798;37.782;2023-02-24T16:41:03;29.80;;;18.70;;
33421;SDS011;19763;55.798;37.782;2023-02-24T16:43:28;37.45;;;22.10;;
33421;SDS011;19763;55.798;37.782;2023-02-24T16:45:54;27.92;;;19.10;;
33421;SDS011;19763;55.798;37.782;2023-02-24T16:48:25;28.98;;;18.90;;
33421;SDS011;19763;55.798;37.782;2023-02-24T16:50:52;35.33;;;19.70;;
33421;SDS011;19763;55.798;37.782;2023-02-24T16:53:19;29.63;;;19.38;;
33421;SDS011;19763;55.798;37.782;2023-02-24T16:55:46;32.60;;;19.95;;
33421;SDS011;19763;55.798;37.782;2023-02-24T16:58:13;32.97;;;18.92;;
33421;SDS011;19763;55.798;37.782;2023-02-24T17:00:40;27.92;;;18.35;;
33421;SDS011;19763;55.798;37.782;2023-02-24T17:03:15;29.60;;;19.27;;
33421;SDS011;19763;55.798;37.782;2023-02-24T17:05:44;28.27;;;18.50;;
33421;SDS011;19763;55.798;37.782;2023-02-24T17:08:09;28.30;;;17.17;;
33421;SDS011;19763;55.798;37.782;2023-02-24T17:10:35;28.00;;;18.77;;
33421;SDS011;19763;55.798;37.782;2023-02-24T17:13:07;30.35;;;19.63;;
33421;SDS011;19763;55.798;37.782;2023-02-24T17:15:37;32.38;;;19.77;;
33421;SDS011;19763;55.798;37.782;2023-02-24T17:18:03;30.17;;;18.88;;
33421;SDS011;19763;55.798;37.782;2023-02-24T17:20:29;29.38;;;20.20;;
33421;SDS011;19763;55.798;37.782;2023-02-24T17:22:54;33.55;;;20.38;;
33421;SDS011;19763;55.798;37.782;2023-02-24T17:25:21;26.90;;;18.30;;
33421;SDS011;19763;55.798;37.782;2023-02-24T17:27:49;28.50;;;19.40;;
33421;SDS011;19763;55.798;37.782;2023-02-24T17:30:26;29.95;;;19.17;;
33421;SDS011;19763;55.798;37.782;2023-02-24T17:32:54;27.10;;;18.88;;
33421;SDS011;19763;55.798;37.782;2023-02-24T17:35:20;33.70;;;20.35;;
33421;SDS011;19763;55.798;37.782;2023-02-24T17:37:45;29.88;;;19.98;;